Time;durP1;ratioP1;P1;durP2;ratioP2;P2;SDS_P1;SDS_P2;PMS_P1;PMS_P2;Temp;Humidity;BMP_temperature;BMP_pressure;BME280_temperature;BME280_humidity;BME280_pressure;Samples;Min_cycle;Max_cycle;Signal;HPM_P1;HPM_P2
2023/08/29 00:02:31;;;;;;;1.70;0.70;;;;;;;21.91;55.64;96112.50;10413512;28;20040;-28
2023/08/29 00:07:32;;;;;;;0.98;0.65;;;;;;;21.93;55.66;96117.59;10413500;28;20034;-29
2023/08/29 00:12:32;;;;;;;0.80;0.60;;;;;;;21.91;55.51;96120.16;10414556;28;20029;-28
2023/08/29 00:17:32;;;;;;;1.35;0.60;;;;;;;21.90;55.78;96108.28;10408924;28;20407;-29
2023/08/29 00:22:33;;;;;;;1.02;0.60;;;;;;;21.88;55.58;96115.13;10417048;28;20029;-29
2023/08/29 00:27:33;;;;;;;1.57;0.47;;;;;;;21.90;55.50;96108.28;10408355;28;20385;-29
2023/08/29 00:32:34;;;;;;;0.87;0.40;;;;;;;21.91;55.48;96119.34;10421225;28;20532;-28
2023/08/29 00:37:34;;;;;;;1.70;0.70;;;;;;;21.91;55.48;96116.78;10411318;28;20021;-28
2023/08/29 00:42:35;;;;;;;1.30;0.60;;;;;;;21.90;55.54;96115.94;10413654;28;20045;-29
2023/08/29 00:47:37;;;;;;;1.08;0.50;;;;;;;21.85;55.30;96120.31;10410550;28;20033;-29
2023/08/29 00:52:38;;;;;;;0.80;0.60;;;;;;;21.89;55.35;96129.56;10411898;28;20407;-28
2023/08/29 00:57:39;;;;;;;2.83;1.03;;;;;;;21.87;55.53;96123.66;10409822;28;20037;-28
2023/08/29 01:02:39;;;;;;;1.17;0.82;;;;;;;21.89;55.55;96124.47;10409030;28;20292;-28
2023/08/29 01:07:41;;;;;;;2.00;0.90;;;;;;;21.88;55.50;96124.50;10411394;28;20044;-28
2023/08/29 01:12:49;;;;;;;1.25;0.70;;;;;;;21.88;55.49;96130.44;10407179;28;20029;-29
2023/08/29 01:18:02;;;;;;;0.68;0.63;;;;;;;21.88;55.43;96130.44;10407297;28;20025;-29
2023/08/29 01:23:10;;;;;;;0.77;0.63;;;;;;;21.86;55.47;96122.00;10414701;28;20037;-28
2023/08/29 01:28:12;;;;;;;2.72;0.68;;;;;;;21.83;55.45;96132.25;10405180;28;20088;-27
2023/08/29 01:33:14;;;;;;;2.05;0.75;;;;;;;21.85;55.53;96114.38;10411572;28;20025;-29
2023/08/29 01:38:17;;;;;;;2.10;0.65;;;;;;;21.83;55.45;96119.53;10410046;28;20029;-29
2023/08/29 01:43:18;;;;;;;1.10;0.80;;;;;;;21.82;55.62;96107.63;10410411;28;20030;-29
2023/08/29 01:48:18;;;;;;;0.63;0.50;;;;;;;21.87;55.51;96117.72;10410345;28;20033;-31
2023/08/29 01:53:18;;;;;;;0.80;0.60;;;;;;;21.85;55.42;96125.41;10404309;28;20063;-29
2023/08/29 01:58:20;;;;;;;0.60;0.60;;;;;;;21.85;55.32;96116.91;10411028;28;20033;-29
2023/08/29 02:03:23;;;;;;;1.20;1.10;;;;;;;21.84;55.34;96112.69;10404150;28;20063;-28
2023/08/29 02:08:23;;;;;;;2.13;0.68;;;;;;;21.83;55.48;96109.34;10417224;28;20033;-29
2023/08/29 02:13:24;;;;;;;1.02;0.73;;;;;;;21.84;55.42;96118.66;10406022;28;20022;-29
2023/08/29 02:18:25;;;;;;;1.30;0.73;;;;;;;21.83;55.58;96103.38;10407639;28;20083;-29
2023/08/29 02:23:25;;;;;;;3.22;0.82;;;;;;;21.84;55.49;96098.25;10409352;28;20044;-29
2023/08/29 02:28:25;;;;;;;0.52;0.47;;;;;;;21.82;55.43;96094.88;10404397;28;20030;-29
2023/08/29 02:33:26;;;;;;;1.90;0.73;;;;;;;21.82;55.22;96094.88;10409582;28;20026;-29
2023/08/29 02:38:29;;;;;;;0.73;0.52;;;;;;;21.80;55.35;96091.53;10406082;28;20053;-29
2023/08/29 02:43:30;;;;;;;3.20;0.70;;;;;;;21.79;55.35;96094.97;10408912;28;20561;-29
2023/08/29 02:48:30;;;;;;;1.77;0.73;;;;;;;21.79;55.46;96097.50;10408032;28;20113;-29
2023/08/29 02:53:31;;;;;;;0.60;0.60;;;;;;;21.81;55.41;96097.50;10406658;28;20033;-29
2023/08/29 02:58:31;;;;;;;1.57;0.80;;;;;;;21.82;55.32;96102.53;10409029;28;20163;-28
2023/08/29 03:03:31;;;;;;;0.67;0.57;;;;;;;21.80;55.45;96096.63;10404862;28;20041;-29
2023/08/29 03:08:32;;;;;;;1.73;0.90;;;;;;;21.77;55.38;96091.63;10408313;28;20304;-28
2023/08/29 03:13:33;;;;;;;0.90;0.60;;;;;;;21.75;55.33;96088.28;10404134;28;20033;-28
2023/08/29 03:18:33;;;;;;;1.37;0.63;;;;;;;21.76;55.53;96081.44;10399958;28;20022;-29
2023/08/29 03:23:35;;;;;;;1.50;0.70;;;;;;;21.76;55.43;96079.75;10417014;28;20272;-29
2023/08/29 03:28:36;;;;;;;3.13;0.68;;;;;;;21.73;55.43;96079.81;10419913;28;20051;-29
2023/08/29 03:33:38;;;;;;;1.38;0.70;;;;;;;21.76;55.54;96079.75;10411213;28;20061;-28
2023/08/29 03:38:40;;;;;;;2.15;0.80;;;;;;;21.76;55.43;96077.22;10412772;28;20021;-29
2023/08/29 03:43:42;;;;;;;1.15;0.80;;;;;;;21.74;55.45;96076.38;10415656;28;20041;-28
2023/08/29 03:48:43;;;;;;;0.95;0.70;;;;;;;21.76;55.18;96082.31;10408830;28;20037;-29
2023/08/29 03:53:43;;;;;;;0.67;0.57;;;;;;;21.73;55.57;96074.72;10419527;28;20396;-28
2023/08/29 03:58:46;;;;;;;0.68;0.63;;;;;;;21.75;55.52;96078.09;10416358;28;20040;-29
2023/08/29 04:03:47;;;;;;;1.33;0.70;;;;;;;21.73;55.51;96068.78;10412905;28;20048;-28
2023/08/29 04:08:47;;;;;;;1.20;0.70;;;;;;;21.74;55.38;96071.28;10414764;28;20037;-28
2023/08/29 04:13:47;;;;;;;1.70;0.70;;;;;;;21.75;55.41;96077.22;10409137;28;20099;-28
2023/08/29 04:18:48;;;;;;;0.85;0.73;;;;;;;21.72;55.42;96073.03;10417991;28;20021;-29
2023/08/29 04:23:48;;;;;;;1.53;0.73;;;;;;;21.69;55.66;96073.13;10430993;28;20075;-29
2023/08/29 04:28:50;;;;;;;1.42;0.63;;;;;;;21.71;55.43;96071.38;10432391;28;20092;-29
2023/08/29 04:33:50;;;;;;;2.80;0.60;;;;;;;21.69;55.75;96072.28;10427776;28;20029;-28
2023/08/29 04:38:51;;;;;;;2.47;0.90;;;;;;;21.69;55.29;96078.22;10433969;28;20370;-29
2023/08/29 04:43:51;;;;;;;3.83;0.70;;;;;;;21.68;55.44;96068.91;10431481;28;20033;-28
2023/08/29 04:48:53;;;;;;;1.77;1.10;;;;;;;21.69;55.57;96078.22;10412656;28;20037;-29
2023/08/29 04:53:53;;;;;;;3.95;1.25;;;;;;;21.49;56.07;96075.22;10410290;28;20132;-28
2023/08/29 04:58:54;;;;;;;3.28;1.85;;;;;;;21.37;56.69;96085.69;10408098;28;20395;-29
2023/08/29 05:03:54;;;;;;;2.60;1.47;;;;;;;21.28;56.27;96080.78;10412823;28;20033;-29
2023/08/29 05:08:55;;;;;;;2.97;1.00;;;;;;;21.27;56.12;96079.13;10417860;28;20292;-29
2023/08/29 05:13:55;;;;;;;3.30;1.30;;;;;;;21.25;56.08;96085.97;10410798;28;20095;-28
2023/08/29 05:18:56;;;;;;;1.95;0.90;;;;;;;21.24;56.01;96079.16;10406402;28;20048;-29
2023/08/29 05:23:57;;;;;;;0.90;0.88;;;;;;;21.20;55.97;96077.56;10422392;28;20033;-28
2023/08/29 05:28:57;;;;;;;1.58;0.95;;;;;;;21.21;56.10;96083.50;10403567;28;20058;-29
2023/08/29 05:33:58;;;;;;;1.27;1.00;;;;;;;21.18;56.12;96084.41;10409435;28;20040;-28
2023/08/29 05:38:58;;;;;;;1.10;0.90;;;;;;;21.18;55.90;96079.31;10411133;28;20168;-28
2023/08/29 05:43:59;;;;;;;3.37;1.23;;;;;;;21.16;56.25;96086.16;10408625;28;20033;-29
2023/08/29 05:48:59;;;;;;;1.00;0.90;;;;;;;21.13;56.05;96093.84;10402459;28;20310;-28
2023/08/29 05:54:00;;;;;;;4.10;1.23;;;;;;;21.11;56.12;96098.13;10409846;28;20044;-28
2023/08/29 05:59:00;;;;;;;1.00;0.88;;;;;;;21.11;56.40;96098.13;10404168;28;20120;-28
2023/08/29 06:04:04;;;;;;;2.87;1.37;;;;;;;21.41;55.92;96106.84;10412688;28;20034;-29
2023/08/29 06:09:04;;;;;;;3.25;1.20;;;;;;;21.48;55.45;96104.13;10410509;28;20171;-29
2023/08/29 06:14:05;;;;;;;8.32;1.52;;;;;;;21.36;55.71;96109.47;10407572;28;20511;-29
2023/08/29 06:19:05;;;;;;;14.17;1.70;;;;;;;21.38;55.69;96102.63;10410076;28;20511;-29
2023/08/29 06:24:06;;;;;;;6.63;1.40;;;;;;;21.27;55.74;96104.59;10417976;28;20077;-29
2023/08/29 06:29:07;;;;;;;2.90;1.60;;;;;;;21.14;56.27;96120.13;10435772;28;20027;-29
2023/08/29 06:34:08;;;;;;;4.70;1.48;;;;;;;21.08;56.16;96123.66;10428487;28;20039;-29
2023/08/29 06:39:08;;;;;;;5.40;1.60;;;;;;;20.97;56.33;96125.53;10418998;28;20069;-29
2023/08/29 06:44:08;;;;;;;1.77;1.03;;;;;;;20.91;56.72;96120.59;10420067;28;20041;-29
2023/08/29 06:49:09;;;;;;;3.77;1.43;;;;;;;20.97;56.52;96123.00;10422541;28;20056;-28
2023/08/29 06:54:09;;;;;;;3.40;1.23;;;;;;;21.04;56.42;96132.19;10430637;28;20036;-29
2023/08/29 06:59:10;;;;;;;4.83;1.43;;;;;;;21.11;56.71;96123.56;10423124;28;20037;-28
2023/08/29 07:04:11;;;;;;;3.42;1.65;;;;;;;21.07;56.77;96127.03;10440197;28;20040;-29
2023/08/29 07:09:11;;;;;;;2.40;1.33;;;;;;;21.08;56.63;96130.44;10424005;28;20042;-29
2023/08/29 07:14:12;;;;;;;15.10;4.23;;;;;;;21.03;57.00;96138.16;10428050;28;20299;-29
2023/08/29 07:19:12;;;;;;;8.03;2.97;;;;;;;21.05;56.54;96138.97;10430345;28;20052;-29
2023/08/29 07:24:12;;;;;;;3.20;1.80;;;;;;;21.03;56.26;96145.78;10409647;28;20306;-29
2023/08/29 07:29:13;;;;;;;4.40;2.23;;;;;;;20.94;56.26;96151.06;10427881;28;20062;-29
2023/08/29 07:34:15;;;;;;;3.97;2.17;;;;;;;20.95;55.74;96146.78;10415830;28;20079;-28
2023/08/29 07:39:18;;;;;;;6.82;2.15;;;;;;;20.93;55.98;96149.38;10426273;28;20091;-30
2023/08/29 07:44:19;;;;;;;3.72;1.55;;;;;;;20.88;56.31;96158.78;10438728;28;20036;-29
2023/08/29 07:49:20;;;;;;;8.63;2.20;;;;;;;20.86;56.32;96158.00;10418404;28;20046;-28
2023/08/29 07:54:21;;;;;;;4.13;2.17;;;;;;;20.84;56.19;96162.25;10431868;28;20073;-28
2023/08/29 07:59:23;;;;;;;5.35;2.00;;;;;;;20.84;56.31;96163.94;10416646;28;20499;-29
2023/08/29 08:04:24;;;;;;;14.35;4.07;;;;;;;21.39;57.25;96165.44;10436011;28;20059;-30
2023/08/29 08:09:24;;;;;;;7.53;3.47;;;;;;;21.34;55.52;96172.34;10411517;28;20038;-29
2023/08/29 08:14:24;;;;;;;5.53;2.33;;;;;;;21.18;56.43;96173.50;10410049;28;20038;-29
2023/08/29 08:19:25;;;;;;;9.33;3.00;;;;;;;21.19;56.01;96172.63;10438781;28;20522;-29
2023/08/29 08:24:25;;;;;;;1.98;1.70;;;;;;;21.12;56.30;96177.84;10427293;28;20393;-29
2023/08/29 08:29:26;;;;;;;3.03;1.93;;;;;;;21.05;56.18;96174.59;10433703;28;20041;-28
2023/08/29 08:34:26;;;;;;;3.43;1.50;;;;;;;20.97;56.77;96178.97;10407731;28;20499;-29
2023/08/29 08:39:27;;;;;;;2.72;1.58;;;;;;;21.04;56.61;96183.09;10413632;28;20554;-29
2023/08/29 08:44:27;;;;;;;2.83;1.47;;;;;;;21.05;56.78;96166.13;10404674;28;20038;-28
2023/08/29 08:49:28;;;;;;;3.83;1.40;;;;;;;21.16;56.64;96167.63;10432514;28;20798;-29
2023/08/29 08:54:28;;;;;;;2.53;1.33;;;;;;;21.11;56.94;96171.09;10416594;28;20093;-29
2023/08/29 08:59:29;;;;;;;1.13;1.03;;;;;;;21.10;57.12;96166.88;10417217;28;20112;-29
2023/08/29 09:04:29;;;;;;;2.10;1.50;;;;;;;21.08;57.16;96159.28;10412436;28;20384;-28
2023/08/29 09:09:29;;;;;;;2.67;0.97;;;;;;;21.11;57.06;96171.94;10409017;28;20041;-28
2023/08/29 09:14:31;;;;;;;1.40;1.20;;;;;;;21.12;57.05;96170.22;10402444;28;20041;-29
2023/08/29 09:19:35;;;;;;;1.35;1.20;;;;;;;21.07;57.13;96167.75;10414263;28;20033;-29
2023/08/29 09:24:35;;;;;;;3.42;2.10;;;;;;;21.19;56.96;96177.72;10402931;28;20569;-29
2023/08/29 09:29:36;;;;;;;4.20;2.33;;;;;;;21.09;57.03;96176.22;10425112;28;20033;-30
2023/08/29 09:34:36;;;;;;;7.93;1.90;;;;;;;21.16;57.12;96175.25;10426445;28;20025;-29
2023/08/29 09:39:37;;;;;;;6.50;2.77;;;;;;;21.13;57.29;96172.75;10432424;28;20104;-28
2023/08/29 09:44:39;;;;;;;6.75;2.72;;;;;;;21.20;57.02;96169.22;10423738;28;20331;-28
2023/08/29 09:49:48;;;;;;;5.82;2.83;;;;;;;21.11;57.13;96169.41;10408769;28;20040;-29
2023/08/29 09:54:52;;;;;;;10.82;3.38;;;;;;;21.13;57.00;96170.19;10409361;28;20140;-28
2023/08/29 09:59:56;;;;;;;8.88;3.22;;;;;;;21.11;57.08;96166.84;10411013;28;20026;-29
2023/08/29 10:05:20;;;;;;;8.88;3.05;;;;;;;21.02;56.67;96169.56;10407816;28;20033;-29
2023/08/29 10:10:21;;;;;;;4.57;2.47;;;;;;;21.22;56.85;96172.56;10401586;28;20084;-28
2023/08/29 10:15:22;;;;;;;8.15;2.42;;;;;;;21.11;56.78;96169.41;10410000;28;20037;-29
2023/08/29 10:20:24;;;;;;;3.38;2.17;;;;;;;21.08;56.89;96166.91;10405720;28;20491;-29
2023/08/29 10:25:24;;;;;;;6.40;2.92;;;;;;;21.03;56.90;96166.16;10416229;28;20040;-28
2023/08/29 10:30:25;;;;;;;3.75;2.47;;;;;;;21.22;56.82;96171.75;10399988;28;20033;-29
2023/08/29 10:35:31;;;;;;;4.28;2.67;;;;;;;21.24;56.95;96165.72;10409771;28;20032;-29
2023/08/29 10:40:36;;;;;;;7.37;2.43;;;;;;;21.21;56.92;96155.63;10408936;28;20037;-29
2023/08/29 10:45:46;;;;;;;3.85;2.50;;;;;;;21.13;57.68;96162.56;10406865;28;20288;-28
2023/08/29 10:51:08;;;;;;;3.95;2.30;;;;;;;21.12;57.73;96160.03;10409266;28;20144;-29
2023/08/29 10:56:09;;;;;;;3.97;2.85;;;;;;;21.09;57.52;96139.75;10402143;28;20036;-28
2023/08/29 11:01:30;;;;;;;2.17;1.98;;;;;;;21.02;58.15;96146.66;10408547;28;20037;-31
2023/08/29 11:06:51;;;;;;;2.30;2.10;;;;;;;21.02;57.91;96148.34;10402687;28;20056;-28
2023/08/29 11:12:08;;;;;;;4.72;2.40;;;;;;;21.05;57.66;96136.41;10405742;28;20132;-28
2023/08/29 11:17:10;;;;;;;2.83;2.00;;;;;;;21.05;57.93;96138.97;10407575;28;20037;-29
2023/08/29 11:22:15;;;;;;;3.17;1.90;;;;;;;21.10;57.63;96136.31;10411487;28;20060;-29
2023/08/29 11:27:16;;;;;;;4.45;2.03;;;;;;;21.07;57.59;96136.41;10408389;28;20049;-29
2023/08/29 11:32:19;;;;;;;1.95;1.65;;;;;;;21.05;57.46;96133.88;10400350;28;20033;-28
2023/08/29 11:37:23;;;;;;;3.50;1.73;;;;;;;21.09;57.41;96134.66;10416035;28;20064;-28
2023/08/29 11:42:28;;;;;;;2.88;1.70;;;;;;;21.07;57.42;96127.03;10407618;28;20065;-29
2023/08/29 11:47:29;;;;;;;3.30;2.13;;;;;;;21.03;57.08;96138.16;10414299;28;20038;-28
2023/08/29 11:52:29;;;;;;;2.33;1.73;;;;;;;21.07;57.25;96137.22;10415306;28;20500;-29
2023/08/29 11:57:30;;;;;;;5.07;2.38;;;;;;;21.02;57.13;96139.03;10427309;28;20040;-28
2023/08/29 12:02:31;;;;;;;6.40;1.83;;;;;;;21.03;56.81;96144.94;10422404;28;20052;-29
2023/08/29 12:07:32;;;;;;;6.85;2.47;;;;;;;21.05;56.62;96136.41;10407762;28;20168;-29
2023/08/29 12:12:36;;;;;;;4.18;2.20;;;;;;;20.99;56.88;96144.16;10414730;28;20049;-28
2023/08/29 12:17:41;;;;;;;4.20;1.73;;;;;;;21.12;56.67;96148.16;10420795;28;20123;-28
2023/08/29 12:22:48;;;;;;;4.15;2.15;;;;;;;21.10;57.36;96152.44;10429789;28;20037;-28
2023/08/29 12:27:48;;;;;;;4.35;2.30;;;;;;;21.11;57.17;96150.72;10413180;28;20037;-29
2023/08/29 12:32:49;;;;;;;3.53;2.00;;;;;;;21.11;57.12;96159.22;10430809;28;20053;-29
2023/08/29 12:37:50;;;;;;;3.30;2.47;;;;;;;21.12;58.52;96144.75;10412693;28;20036;-29
2023/08/29 12:42:51;;;;;;;2.63;2.40;;;;;;;21.13;57.63;96149.00;10436786;28;20041;-29
2023/08/29 12:47:52;;;;;;;6.03;2.38;;;;;;;21.07;57.69;96144.03;10422483;28;20021;-28
2023/08/29 12:52:52;;;;;;;2.93;2.00;;;;;;;21.01;57.34;96145.00;10418821;28;20037;-29
2023/08/29 12:57:53;;;;;;;1.93;1.60;;;;;;;21.02;57.32;96151.75;10435023;28;20025;-28
2023/08/29 13:02:53;;;;;;;3.40;1.90;;;;;;;21.03;57.31;96145.78;10426556;28;20499;-29
2023/08/29 13:07:53;;;;;;;2.50;1.77;;;;;;;21.06;57.45;96147.44;10419398;28;20030;-29
2023/08/29 13:12:54;;;;;;;2.67;1.97;;;;;;;21.05;57.56;96154.22;10415714;28;20120;-29
2023/08/29 13:17:54;;;;;;;2.17;1.60;;;;;;;21.05;57.43;96153.41;10424468;28;20021;-28
2023/08/29 13:22:54;;;;;;;3.20;1.70;;;;;;;21.03;57.27;96139.84;10424850;28;20044;-28
2023/08/29 13:27:55;;;;;;;2.37;1.50;;;;;;;21.01;57.13;96139.06;10418947;28;20495;-28
2023/08/29 13:32:56;;;;;;;1.65;1.40;;;;;;;21.07;56.97;96132.13;10419856;28;20109;-29
2023/08/29 13:37:56;;;;;;;2.33;1.57;;;;;;;21.09;56.98;96135.50;10410097;28;20037;-29
2023/08/29 13:42:56;;;;;;;4.77;2.00;;;;;;;21.15;56.87;96134.53;10421188;28;20047;-29
2023/08/29 13:47:57;;;;;;;2.07;1.30;;;;;;;21.19;56.84;96126.81;10412810;28;20395;-28
2023/08/29 13:52:58;;;;;;;1.97;1.73;;;;;;;21.19;56.59;96128.50;10426847;28;20037;-29
2023/08/29 13:57:58;;;;;;;1.77;1.42;;;;;;;21.16;56.49;96126.03;10426990;28;20037;-29
2023/08/29 14:02:58;;;;;;;2.67;1.70;;;;;;;21.16;56.40;96116.69;10413168;28;20029;-29
2023/08/29 14:07:59;;;;;;;2.13;1.77;;;;;;;21.18;56.52;96117.50;10428411;28;20306;-29
2023/08/29 14:13:00;;;;;;;4.43;1.42;;;;;;;21.24;56.63;96119.09;10424395;28;20029;-28
2023/08/29 14:18:00;;;;;;;10.23;1.90;;;;;;;21.31;56.80;96121.47;10417349;28;20034;-28
2023/08/29 14:23:01;;;;;;;6.00;1.70;;;;;;;21.13;56.78;96124.38;10430728;28;20036;-28
2023/08/29 14:28:01;;;;;;;2.72;1.60;;;;;;;21.04;56.77;96131.38;10411495;28;20518;-29
2023/08/29 14:33:02;;;;;;;4.97;1.80;;;;;;;20.91;56.66;96130.78;10409989;28;20033;-29
2023/08/29 14:38:03;;;;;;;3.15;1.38;;;;;;;20.93;56.67;96134.13;10403526;28;20037;-28
2023/08/29 14:43:04;;;;;;;3.25;2.05;;;;;;;20.90;57.06;96134.16;10409717;28;20043;-28
2023/08/29 14:48:04;;;;;;;2.65;1.90;;;;;;;20.93;56.76;96141.75;10406767;28;20055;-29
2023/08/29 14:53:05;;;;;;;2.08;1.38;;;;;;;20.95;57.22;96139.16;10404671;28;20063;-29
2023/08/29 14:58:05;;;;;;;3.27;1.53;;;;;;;20.94;57.08;96137.47;10406633;28;20163;-28
2023/08/29 15:03:05;;;;;;;2.03;1.37;;;;;;;20.97;57.15;96140.81;10402587;28;20029;-28
2023/08/29 15:08:06;;;;;;;1.20;1.07;;;;;;;20.95;56.46;96132.38;10399060;28;20040;-29
2023/08/29 15:13:07;;;;;;;1.92;1.52;;;;;;;20.95;56.26;96137.47;10402152;28;20033;-28
2023/08/29 15:18:07;;;;;;;2.90;1.60;;;;;;;20.90;56.46;96135.88;10426489;28;20087;-29
2023/08/29 15:23:10;;;;;;;4.53;1.55;;;;;;;20.85;56.03;96135.94;10410489;28;20091;-29
2023/08/29 15:28:11;;;;;;;2.45;1.70;;;;;;;20.82;56.53;96123.25;10407163;28;20034;-29
2023/08/29 15:33:11;;;;;;;3.90;1.70;;;;;;;20.92;56.58;96127.34;10400266;28;20041;-30
2023/08/29 15:38:13;;;;;;;1.60;1.40;;;;;;;20.89;57.03;96132.47;10407973;28;20044;-29
2023/08/29 15:43:14;;;;;;;3.85;1.40;;;;;;;20.90;56.62;96130.78;10407312;28;20082;-29
2023/08/29 15:48:16;;;;;;;3.03;1.40;;;;;;;20.90;57.10;96136.69;10407989;28;20036;-29
2023/08/29 15:53:16;;;;;;;7.05;1.75;;;;;;;20.89;56.79;96136.75;10401155;28;20064;-31
2023/08/29 15:58:17;;;;;;;3.17;1.33;;;;;;;20.94;56.88;96140.88;10399974;28;20038;-29
2023/08/29 16:03:17;;;;;;;3.13;1.20;;;;;;;21.04;56.79;96142.38;10404189;28;20048;-29
2023/08/29 16:08:18;;;;;;;3.73;1.70;;;;;;;21.17;57.89;96141.28;10412372;28;20040;-29
2023/08/29 16:13:18;;;;;;;3.60;1.13;;;;;;;21.09;57.34;96155.88;10405257;28;20044;-28
2023/08/29 16:18:19;;;;;;;3.53;1.40;;;;;;;21.09;57.22;96150.78;10407294;28;20037;-29
2023/08/29 16:23:19;;;;;;;2.80;1.20;;;;;;;21.10;57.03;96149.91;10404838;28;20037;-29
2023/08/29 16:28:20;;;;;;;2.72;1.30;;;;;;;21.11;57.09;96148.19;10405618;28;20084;-28
2023/08/29 16:33:20;;;;;;;8.88;1.92;;;;;;;21.07;57.14;96152.50;10412296;28;20041;-28
2023/08/29 16:38:21;;;;;;;2.70;1.07;;;;;;;21.12;57.05;96160.88;10414948;28;20030;-29
2023/08/29 16:43:21;;;;;;;5.17;1.40;;;;;;;21.14;56.77;96174.41;10410457;28;20041;-29
2023/08/29 16:48:22;;;;;;;2.53;1.33;;;;;;;21.12;57.23;96165.97;10409425;28;20295;-30
2023/08/29 16:53:23;;;;;;;3.23;1.60;;;;;;;21.12;57.16;96176.16;10403010;28;20488;-29
2023/08/29 16:58:23;;;;;;;3.88;1.60;;;;;;;21.17;57.23;96179.47;10411754;28;20295;-28
2023/08/29 17:03:24;;;;;;;2.23;1.60;;;;;;;21.10;57.50;96175.34;10425889;28;20029;-29
2023/08/29 17:08:24;;;;;;;4.40;2.95;;;;;;;21.12;57.67;96175.31;10405695;28;20030;-29
2023/08/29 17:13:25;;;;;;;5.13;2.60;;;;;;;21.09;57.77;96176.22;10412416;28;20037;-29
2023/08/29 17:18:25;;;;;;;6.17;3.17;;;;;;;21.09;57.91;96178.78;10404498;28;20778;-29
2023/08/29 17:23:26;;;;;;;4.65;2.50;;;;;;;21.09;57.94;96176.22;10412246;28;20066;-28
2023/08/29 17:28:26;;;;;;;5.57;2.33;;;;;;;21.09;57.79;96175.38;10412041;28;20500;-29
2023/08/29 17:33:26;;;;;;;2.70;1.73;;;;;;;21.09;58.10;96176.22;10405518;28;20041;-29
2023/08/29 17:38:27;;;;;;;4.10;2.50;;;;;;;21.12;57.97;96181.25;10412238;28;20037;-29
2023/08/29 17:43:28;;;;;;;2.87;2.07;;;;;;;21.12;57.58;96178.72;10408015;28;20464;-29
2023/08/29 17:48:29;;;;;;;3.95;2.20;;;;;;;21.15;57.47;96176.09;10410615;28;20116;-29
2023/08/29 17:53:29;;;;;;;3.13;2.22;;;;;;;21.18;57.48;96188.78;10413857;28;20033;-28
2023/08/29 17:58:29;;;;;;;6.23;2.50;;;;;;;21.21;57.60;96188.72;10407454;28;20474;-28
2023/08/29 18:03:30;;;;;;;5.40;2.40;;;;;;;21.19;57.53;96182.81;10415363;28;20668;-29
2023/08/29 18:08:30;;;;;;;6.88;2.75;;;;;;;21.15;57.85;96186.28;10410354;28;20292;-29
2023/08/29 18:13:31;;;;;;;4.13;2.28;;;;;;;21.14;58.12;96183.78;10416940;28;20033;-29
2023/08/29 18:18:31;;;;;;;4.27;1.87;;;;;;;21.17;58.23;96183.72;10410495;28;20044;-29
2023/08/29 18:23:32;;;;;;;3.60;2.03;;;;;;;21.20;58.21;96184.50;10406108;28;20288;-29
2023/08/29 18:28:33;;;;;;;9.83;2.00;;;;;;;21.21;58.29;96183.63;10409182;28;20124;-29
2023/08/29 18:33:33;;;;;;;5.20;1.80;;;;;;;21.21;58.37;96191.25;10403493;28;20116;-29
2023/08/29 18:38:34;;;;;;;6.55;1.85;;;;;;;21.15;58.29;96175.28;10406848;28;20040;-29
2023/08/29 18:43:35;;;;;;;4.32;1.95;;;;;;;21.24;58.24;96198.81;10399015;28;20463;-29
2023/08/29 18:48:35;;;;;;;2.80;2.00;;;;;;;21.27;58.16;96201.34;10407847;28;20044;-29
2023/08/29 18:53:35;;;;;;;4.07;2.00;;;;;;;21.28;58.26;96202.16;10404376;28;20290;-30
2023/08/29 18:58:36;;;;;;;6.47;1.80;;;;;;;21.29;58.00;96209.78;10398954;28;20029;-29
2023/08/29 19:03:38;;;;;;;6.97;1.83;;;;;;;21.27;58.18;96211.53;10414174;28;20287;-29
2023/08/29 19:08:39;;;;;;;5.30;2.33;;;;;;;21.26;58.26;96219.19;10404734;28;20549;-29
2023/08/29 19:13:39;;;;;;;4.88;1.98;;;;;;;21.23;58.41;96220.06;10401200;28;20037;-28
2023/08/29 19:18:39;;;;;;;5.90;1.90;;;;;;;21.22;58.43;96208.22;10404340;28;20041;-28
2023/08/29 19:23:40;;;;;;;3.60;1.77;;;;;;;21.22;58.35;96217.56;10397538;28;20042;-28
2023/08/29 19:28:40;;;;;;;3.67;1.70;;;;;;;21.20;58.24;96209.94;10404002;28;20038;-29
2023/08/29 19:33:41;;;;;;;5.13;1.83;;;;;;;21.19;58.30;96221.00;10398449;28;20045;-29
2023/08/29 19:38:43;;;;;;;3.72;1.55;;;;;;;21.12;58.60;96224.53;10403729;28;20053;-29
2023/08/29 19:43:45;;;;;;;4.43;2.17;;;;;;;21.10;58.40;96222.88;10395238;28;20032;-29
2023/08/29 19:48:46;;;;;;;2.45;1.60;;;;;;;21.21;58.82;96221.81;10406400;28;20547;-28
2023/08/29 19:53:49;;;;;;;4.87;1.80;;;;;;;21.23;58.81;96219.25;10406006;28;20037;-29
2023/08/29 19:58:49;;;;;;;4.60;1.98;;;;;;;21.25;59.01;96223.44;10399457;28;20076;-28
2023/08/29 20:03:50;;;;;;;6.07;2.08;;;;;;;21.29;58.86;96225.06;10406454;28;20040;-28
2023/08/29 20:08:51;;;;;;;3.00;1.70;;;;;;;21.27;58.77;96225.94;10408032;28;20037;-30
2023/08/29 20:13:51;;;;;;;4.80;2.15;;;;;;;21.26;58.90;96224.28;10418628;28;20362;-29
2023/08/29 20:18:53;;;;;;;3.22;1.80;;;;;;;21.26;58.87;96224.28;10402551;28;20040;-29
2023/08/29 20:23:53;;;;;;;5.13;1.92;;;;;;;21.23;59.01;96214.16;10411591;28;20037;-28
2023/08/29 20:28:53;;;;;;;3.37;1.70;;;;;;;21.21;58.98;96221.81;10414002;28;20033;-29
2023/08/29 20:33:54;;;;;;;6.90;2.23;;;;;;;21.16;59.71;96213.44;10410526;28;20079;-28
2023/08/29 20:38:55;;;;;;;3.27;1.90;;;;;;;21.17;59.33;96214.25;10404954;28;20335;-29
2023/08/29 20:43:55;;;;;;;3.88;1.45;;;;;;;21.21;59.18;96211.63;10413570;28;20315;-29
2023/08/29 20:48:55;;;;;;;8.53;2.70;;;;;;;21.22;59.11;96212.47;10408485;28;20033;-29
2023/08/29 20:53:56;;;;;;;7.33;1.90;;;;;;;21.10;59.41;96190.63;10412280;28;20407;-29
2023/08/29 20:58:57;;;;;;;4.67;1.50;;;;;;;21.14;59.47;96202.41;10425148;28;20376;-29
2023/08/29 21:03:57;;;;;;;4.93;1.48;;;;;;;21.12;59.43;96196.53;10413082;28;20030;-29
2023/08/29 21:08:59;;;;;;;3.60;1.10;;;;;;;21.15;59.39;96188.00;10416291;28;20424;-29
2023/08/29 21:13:59;;;;;;;4.30;1.80;;;;;;;21.13;59.36;96184.66;10404753;28;20033;-28
2023/08/29 21:19:00;;;;;;;3.47;1.73;;;;;;;21.22;59.41;96187.03;10407267;28;20034;-28
2023/08/29 21:24:00;;;;;;;4.27;1.70;;;;;;;21.30;59.35;96190.25;10411548;28;20025;-29
2023/08/29 21:29:00;;;;;;;5.40;2.03;;;;;;;21.33;59.47;96193.59;10426939;28;20045;-29
2023/08/29 21:34:01;;;;;;;3.20;1.77;;;;;;;21.37;59.22;96192.66;10436767;28;20043;-29
2023/08/29 21:39:01;;;;;;;3.00;1.80;;;;;;;21.37;59.29;96195.19;10435990;28;20772;-30
2023/08/29 21:44:02;;;;;;;4.63;2.30;;;;;;;21.40;59.16;96182.38;10428269;28;20506;-29
2023/08/29 21:49:02;;;;;;;4.03;1.90;;;;;;;21.40;59.47;96171.38;10410508;28;20276;-28
2023/08/29 21:54:03;;;;;;;3.63;1.60;;;;;;;21.39;59.31;96170.53;10404973;28;20033;-29
2023/08/29 21:59:03;;;;;;;4.90;1.60;;;;;;;21.40;59.35;96166.28;10408744;28;20041;-28
2023/08/29 22:04:04;;;;;;;4.50;2.17;;;;;;;21.40;59.43;96162.00;10411148;28;20037;-28
2023/08/29 22:09:04;;;;;;;3.33;1.25;;;;;;;21.38;59.36;96162.94;10406348;28;20671;-29
2023/08/29 22:14:04;;;;;;;4.90;1.50;;;;;;;21.40;59.48;96154.38;10410754;28;20041;-28
2023/08/29 22:19:05;;;;;;;2.43;1.77;;;;;;;21.40;59.30;96146.72;10404373;28;20029;-28
2023/08/29 22:24:06;;;;;;;2.30;1.43;;;;;;;21.38;59.47;96143.38;10410986;28;20152;-29
2023/08/29 22:29:06;;;;;;;4.72;1.67;;;;;;;21.39;59.57;96139.16;10407191;28;20120;-29
2023/08/29 22:34:06;;;;;;;2.83;1.40;;;;;;;21.38;59.46;96138.28;10410875;28;20037;-28
2023/08/29 22:39:07;;;;;;;4.07;2.20;;;;;;;21.37;59.53;96136.63;10402125;28;20064;-28
2023/08/29 22:44:07;;;;;;;3.60;1.43;;;;;;;21.36;59.81;96140.03;10411116;28;20035;-29
2023/08/29 22:49:07;;;;;;;3.20;1.73;;;;;;;21.36;59.56;96134.94;10406459;28;20446;-28
2023/08/29 22:54:08;;;;;;;4.20;1.80;;;;;;;21.34;59.82;96140.94;10408328;28;20049;-30
2023/08/29 22:59:08;;;;;;;4.43;1.80;;;;;;;21.35;59.23;96137.50;10410266;28;20384;-29
2023/08/29 23:04:09;;;;;;;2.90;1.77;;;;;;;21.32;59.82;96135.03;10408325;28;20293;-28
2023/08/29 23:09:11;;;;;;;5.10;1.95;;;;;;;21.32;59.47;96130.78;10417303;28;20044;-29
2023/08/29 23:14:24;;;;;;;2.38;1.70;;;;;;;21.31;59.61;96131.63;10405352;28;20040;-28
2023/08/29 23:19:25;;;;;;;3.92;1.80;;;;;;;21.32;59.52;96123.13;10408852;28;20037;-29